Time;durP1;ratioP1;P1;durP2;ratioP2;P2;SDS_P1;SDS_P2;PMS_P1;PMS_P2;Temp;Humidity;BMP_temperature;BMP_pressure;BME280_temperature;BME280_humidity;BME280_pressure;Samples;Min_cycle;Max_cycle;Signal;HPM_P1;HPM_P2
2023/01/14 00:01:53;;;;;;;5.27;1.80;;;10.70;87.10;;;;;;935793;150;27826;-82
2023/01/14 00:04:19;;;;;;;5.60;2.07;;;10.70;87.10;;;;;;920422;153;27345;-82
2023/01/14 00:06:46;;;;;;;5.27;1.90;;;10.70;87.10;;;;;;935184;151;27194;-82
2023/01/14 00:09:13;;;;;;;6.67;1.93;;;10.70;87.10;;;;;;934434;153;27717;-82
2023/01/14 00:11:51;;;;;;;6.50;2.00;;;10.70;87.00;;;;;;935558;150;27463;-82
2023/01/14 00:14:18;;;;;;;6.17;1.80;;;10.70;86.90;;;;;;919955;153;27445;-82
2023/01/14 00:16:44;;;;;;;6.43;2.33;;;10.80;86.90;;;;;;935816;150;27363;-82
2023/01/14 00:19:11;;;;;;;5.20;2.00;;;10.80;86.70;;;;;;919762;153;27296;-82
2023/01/14 00:21:38;;;;;;;6.50;1.97;;;10.80;86.70;;;;;;934875;151;27269;-82
2023/01/14 00:24:04;;;;;;;5.70;2.17;;;10.80;86.60;;;;;;920460;153;27902;-82
2023/01/14 00:26:31;;;;;;;5.43;2.37;;;10.80;86.60;;;;;;934547;151;27210;-82
2023/01/14 00:28:57;;;;;;;6.50;2.37;;;10.80;86.50;;;;;;920259;153;27486;-82
2023/01/14 00:31:27;;;;;;;7.27;2.10;;;10.80;86.60;;;;;;934593;151;27335;-82
2023/01/14 00:33:53;;;;;;;5.73;1.80;;;10.90;86.50;;;;;;935601;150;28112;-82
2023/01/14 00:36:20;;;;;;;5.17;2.17;;;10.90;86.50;;;;;;935609;150;27449;-82
2023/01/14 00:38:46;;;;;;;8.00;2.40;;;10.90;86.40;;;;;;936270;150;27558;-82
2023/01/14 00:41:13;;;;;;;6.70;2.37;;;10.90;86.20;;;;;;936144;150;27327;-82
2023/01/14 00:43:40;;;;;;;5.40;1.93;;;10.90;86.00;;;;;;936236;150;27347;-82
2023/01/14 00:46:06;;;;;;;5.97;1.97;;;10.80;85.70;;;;;;935440;150;27456;-82
2023/01/14 00:48:33;;;;;;;7.53;2.43;;;10.90;85.70;;;;;;935747;150;27342;-82
2023/01/14 00:50:59;;;;;;;4.43;2.00;;;10.90;85.70;;;;;;936086;150;27328;-82
2023/01/14 00:53:26;;;;;;;7.90;2.43;;;10.80;85.70;;;;;;935429;150;27415;-82
2023/01/14 00:55:52;;;;;;;7.90;2.40;;;10.80;85.70;;;;;;936206;150;27402;-82
2023/01/14 00:58:19;;;;;;;5.87;2.30;;;10.80;85.80;;;;;;935778;150;27355;-82
2023/01/14 01:00:46;;;;;;;6.63;2.40;;;10.80;85.70;;;;;;936464;150;27409;-82
2023/01/14 01:03:12;;;;;;;5.77;2.40;;;10.80;85.70;;;;;;935540;150;27773;-82
2023/01/14 01:05:39;;;;;;;5.93;2.30;;;10.80;85.70;;;;;;936148;150;27382;-82
2023/01/14 01:08:05;;;;;;;6.13;1.93;;;10.80;85.80;;;;;;935803;150;27490;-82
2023/01/14 01:10:32;;;;;;;6.43;2.47;;;10.80;85.70;;;;;;936916;150;27465;-82
2023/01/14 01:12:59;;;;;;;6.63;2.03;;;10.80;85.70;;;;;;923444;152;27467;-82
2023/01/14 01:15:25;;;;;;;8.57;3.10;;;10.80;85.70;;;;;;921865;153;27398;-82
2023/01/14 01:17:52;;;;;;;5.90;2.30;;;10.80;85.50;;;;;;935753;150;27973;-82
2023/01/14 01:20:18;;;;;;;8.37;2.77;;;10.80;85.20;;;;;;935709;150;27367;-82
2023/01/14 01:22:45;;;;;;;6.17;2.00;;;10.80;85.10;;;;;;935463;150;27440;-81
2023/01/14 01:25:12;;;;;;;5.77;2.33;;;10.80;84.90;;;;;;935631;150;27364;-82
2023/01/14 01:27:38;;;;;;;5.93;2.20;;;10.70;84.70;;;;;;935755;150;27350;-82
2023/01/14 01:30:05;;;;;;;7.47;2.37;;;10.70;84.50;;;;;;935808;150;27373;-82
2023/01/14 01:32:31;;;;;;;9.40;2.70;;;10.60;84.40;;;;;;935699;150;27350;-82
2023/01/14 01:34:58;;;;;;;4.97;2.33;;;10.60;84.50;;;;;;936215;150;27295;-82
2023/01/14 01:37:24;;;;;;;5.03;2.20;;;10.50;84.60;;;;;;935470;150;27326;-82
2023/01/14 01:39:51;;;;;;;5.20;2.20;;;10.40;84.80;;;;;;933364;151;27375;-82
2023/01/14 01:42:19;;;;;;;5.03;2.20;;;10.40;85.10;;;;;;934188;151;27295;-82
2023/01/14 01:44:44;;;;;;;8.10;2.90;;;10.30;85.40;;;;;;933490;151;27440;-82
2023/01/14 01:47:11;;;;;;;5.30;2.10;;;10.30;85.90;;;;;;932951;151;27287;-82
2023/01/14 01:49:37;;;;;;;11.30;2.83;;;10.30;86.20;;;;;;934160;151;27472;-82
2023/01/14 01:52:19;;;;;;;5.67;2.30;;;10.30;86.50;;;;;;933036;151;27488;-82
2023/01/14 01:54:46;;;;;;;8.50;2.47;;;10.30;86.70;;;;;;937107;153;27465;-82
2023/01/14 01:57:12;;;;;;;5.03;2.10;;;10.30;86.80;;;;;;936900;151;27312;-82
2023/01/14 01:59:39;;;;;;;8.87;2.50;;;10.30;86.80;;;;;;937715;150;27428;-82
2023/01/14 02:02:06;;;;;;;6.90;2.30;;;10.30;86.80;;;;;;936805;153;27467;-82
2023/01/14 02:04:32;;;;;;;7.33;2.47;;;10.30;86.80;;;;;;937795;152;27339;-82
2023/01/14 02:06:59;;;;;;;10.97;2.73;;;10.30;86.60;;;;;;937072;153;27410;-82
2023/01/14 02:09:25;;;;;;;6.90;2.20;;;10.30;86.70;;;;;;937743;153;27488;-82
2023/01/14 02:12:04;;;;;;;8.47;2.20;;;10.30;86.40;;;;;;937095;153;27487;-82
2023/01/14 02:14:42;;;;;;;5.97;2.27;;;10.30;86.40;;;;;;935464;151;27381;-82
2023/01/14 02:17:27;;;;;;;10.27;2.60;;;10.30;86.30;;;;;;903616;153;27291;-82
2023/01/14 02:20:18;;;;;;;9.97;2.40;;;10.30;86.20;;;;;;936354;153;27435;-81
2023/01/14 02:23:06;;;;;;;7.30;2.23;;;10.30;86.20;;;;;;937605;152;27494;-81
2023/01/14 02:25:50;;;;;;;9.27;2.47;;;10.20;86.20;;;;;;935555;153;27421;-81
2023/01/14 02:28:47;;;;;;;3.90;1.97;;;10.20;86.20;;;;;;936521;153;27466;-81
2023/01/14 02:31:13;;;;;;;7.13;2.20;;;10.10;86.20;;;;;;917461;154;27354;-81
2023/01/14 02:33:46;;;;;;;7.53;2.57;;;10.10;86.20;;;;;;933308;153;27330;-81
2023/01/14 02:36:28;;;;;;;6.87;2.27;;;10.00;86.30;;;;;;934142;153;27375;-81
2023/01/14 02:39:03;;;;;;;5.20;2.10;;;10.00;86.40;;;;;;934304;153;27399;-81
2023/01/14 02:44:26;;;;;;;5.70;2.43;;;9.90;86.50;;;;;;934667;150;27491;-81
2023/01/14 02:46:53;;;;;;;4.97;2.10;;;9.90;86.80;;;;;;935449;152;27488;-80
2023/01/14 02:49:28;;;;;;;7.40;2.17;;;9.90;87.10;;;;;;936414;153;27686;-80
2023/01/14 02:51:58;;;;;;;7.83;2.37;;;9.90;87.40;;;;;;936185;153;27370;-80
2023/01/14 02:54:25;;;;;;;9.43;2.70;;;9.90;87.60;;;;;;920947;155;27723;-80
2023/01/14 02:56:51;;;;;;;5.53;2.27;;;9.90;87.60;;;;;;926676;152;27275;-81
2023/01/14 02:59:36;;;;;;;6.50;2.33;;;9.90;87.60;;;;;;934341;153;27464;-80
2023/01/14 03:02:15;;;;;;;7.20;2.60;;;9.90;87.60;;;;;;917931;155;27500;-81
2023/01/14 03:05:02;;;;;;;9.00;2.40;;;9.90;87.50;;;;;;919047;153;27882;-81
2023/01/14 03:07:34;;;;;;;8.77;2.53;;;9.80;87.40;;;;;;918570;154;27399;-81
2023/01/14 03:10:25;;;;;;;8.23;2.53;;;9.80;87.30;;;;;;934563;151;27835;-81
2023/01/14 03:13:07;;;;;;;10.90;3.17;;;9.80;87.30;;;;;;917797;154;27521;-82
2023/01/14 03:15:52;;;;;;;4.87;1.90;;;9.70;87.20;;;;;;933730;153;27380;-82
2023/01/14 03:18:25;;;;;;;6.20;2.47;;;9.70;87.20;;;;;;887234;159;27442;-78
2023/01/14 03:21:04;;;;;;;8.83;2.67;;;9.70;87.30;;;;;;884986;158;27427;-78
2023/01/14 03:23:30;;;;;;;7.17;2.40;;;9.60;87.30;;;;;;887179;158;27470;-78
2023/01/14 03:25:57;;;;;;;6.20;2.20;;;9.60;87.30;;;;;;872207;161;27971;-79
2023/01/14 03:28:23;;;;;;;6.53;2.30;;;9.60;87.40;;;;;;872269;163;27560;-79
2023/01/14 03:30:50;;;;;;;6.17;2.17;;;9.50;87.30;;;;;;869300;161;27397;-78
2023/01/14 03:33:22;;;;;;;5.73;2.53;;;9.50;87.30;;;;;;866571;163;27405;-78
2023/01/14 03:35:49;;;;;;;5.63;1.97;;;9.40;87.30;;;;;;890959;157;27430;-78
2023/01/14 03:38:40;;;;;;;7.10;2.30;;;9.40;87.40;;;;;;887528;158;27466;-78
2023/01/14 03:41:06;;;;;;;7.50;2.37;;;9.30;87.50;;;;;;887601;158;27446;-78
2023/01/14 03:43:41;;;;;;;7.43;2.43;;;9.30;87.50;;;;;;886888;158;27499;-78
2023/01/14 03:46:08;;;;;;;6.53;2.40;;;9.20;87.80;;;;;;887641;158;27490;-79
2023/01/14 03:48:35;;;;;;;5.83;2.20;;;9.10;87.90;;;;;;888024;158;27433;-78
2023/01/14 03:51:07;;;;;;;4.43;1.90;;;9.10;88.10;;;;;;871905;161;28825;-80
2023/01/14 03:53:34;;;;;;;12.23;3.00;;;9.00;88.20;;;;;;867811;162;27422;-78
2023/01/14 03:56:06;;;;;;;4.87;2.10;;;9.00;88.30;;;;;;886921;158;27405;-77
2023/01/14 03:58:35;;;;;;;7.13;2.00;;;8.90;88.60;;;;;;871470;160;27444;-78
2023/01/14 04:01:07;;;;;;;7.13;2.67;;;8.90;88.60;;;;;;886356;158;27475;-80
2023/01/14 04:03:34;;;;;;;5.93;1.97;;;8.80;88.80;;;;;;872311;161;27964;-81
2023/01/14 04:06:01;;;;;;;7.40;2.00;;;8.70;88.80;;;;;;873618;161;27463;-79
2023/01/14 04:08:27;;;;;;;7.30;2.83;;;8.70;89.10;;;;;;872510;162;27547;-81
2023/01/14 04:10:54;;;;;;;6.47;2.23;;;8.60;89.30;;;;;;887373;158;27368;-81
2023/01/14 04:16:05;;;;;;;7.50;2.40;;;8.50;89.90;;;;;;904698;158;27423;-81
2023/01/14 04:18:51;;;;;;;9.00;2.30;;;8.50;90.00;;;;;;900943;155;27454;-82
2023/01/14 04:21:18;;;;;;;8.20;2.50;;;8.50;90.00;;;;;;928068;151;27814;-78
2023/01/14 04:23:44;;;;;;;11.70;3.40;;;8.40;90.10;;;;;;938521;149;27387;-79
2023/01/14 04:26:11;;;;;;;8.20;2.87;;;8.40;90.40;;;;;;936237;149;27901;-78
2023/01/14 04:28:37;;;;;;;8.87;2.50;;;8.40;90.60;;;;;;938596;149;27311;-78
2023/01/14 04:31:04;;;;;;;9.40;2.30;;;8.40;90.70;;;;;;935442;149;27303;-79
2023/01/14 04:33:31;;;;;;;6.00;2.30;;;8.40;90.90;;;;;;935607;149;27365;-79
2023/01/14 04:35:57;;;;;;;12.67;2.90;;;8.40;91.10;;;;;;936762;149;27417;-81
2023/01/14 04:38:24;;;;;;;8.73;2.30;;;8.40;91.20;;;;;;935477;149;27411;-79
2023/01/14 04:40:50;;;;;;;5.30;2.30;;;8.40;91.30;;;;;;938922;149;27744;-78
2023/01/14 04:43:17;;;;;;;9.40;2.47;;;8.40;91.40;;;;;;937512;149;27345;-78
2023/01/14 04:45:44;;;;;;;4.73;2.67;;;8.50;91.50;;;;;;939286;149;27346;-80
2023/01/14 04:48:10;;;;;;;7.60;2.57;;;8.50;91.50;;;;;;937154;149;27374;-78
2023/01/14 04:50:44;;;;;;;7.83;2.50;;;8.50;91.60;;;;;;937651;149;28000;-78
2023/01/14 04:53:03;;;;;;;9.83;2.50;;;8.50;91.70;;;;;;934420;149;27436;-79
2023/01/14 04:55:30;;;;;;;9.97;2.57;;;8.50;91.60;;;;;;936361;149;27348;-79
2023/01/14 04:57:56;;;;;;;8.37;2.73;;;8.60;91.50;;;;;;936372;149;27532;-78
2023/01/14 05:00:24;;;;;;;6.60;2.13;;;8.60;91.50;;;;;;937158;149;27357;-79
2023/01/14 05:02:50;;;;;;;6.70;2.03;;;8.60;91.50;;;;;;937366;149;27343;-78
2023/01/14 05:05:16;;;;;;;6.83;2.17;;;8.60;91.50;;;;;;936617;149;27337;-79
2023/01/14 05:07:43;;;;;;;7.20;2.23;;;8.60;91.40;;;;;;938442;149;27382;-80
2023/01/14 05:10:09;;;;;;;9.07;3.00;;;8.60;91.40;;;;;;938138;149;27378;-78
2023/01/14 05:12:36;;;;;;;6.33;2.13;;;8.60;91.40;;;;;;937168;149;27351;-77
2023/01/14 05:15:03;;;;;;;6.33;2.63;;;8.60;91.40;;;;;;935771;149;27283;-78
2023/01/14 05:17:29;;;;;;;8.33;2.30;;;8.60;91.40;;;;;;937236;149;27371;-79
2023/01/14 05:19:56;;;;;;;11.30;2.70;;;8.60;91.50;;;;;;937714;149;27526;-78
2023/01/14 05:22:22;;;;;;;5.53;2.30;;;8.60;91.50;;;;;;936414;149;27829;-78
2023/01/14 05:24:49;;;;;;;5.50;2.17;;;8.60;91.60;;;;;;936026;149;27338;-78
2023/01/14 05:27:16;;;;;;;7.17;2.33;;;8.60;91.70;;;;;;936473;149;27439;-80
2023/01/14 05:29:42;;;;;;;6.33;2.43;;;8.60;91.80;;;;;;936597;149;27448;-80
2023/01/14 05:32:12;;;;;;;12.07;2.80;;;8.60;91.80;;;;;;938618;149;27383;-77
2023/01/14 05:34:35;;;;;;;4.73;2.27;;;8.60;91.80;;;;;;937054;149;27287;-78
2023/01/14 05:37:02;;;;;;;6.27;2.03;;;8.60;91.90;;;;;;938336;149;27339;-79
2023/01/14 05:39:28;;;;;;;12.50;2.50;;;8.60;91.80;;;;;;939346;149;27466;-79
2023/01/14 05:47:25;;;;;;;7.23;2.40;;;8.60;91.80;;;;;;935307;149;27473;-77
2023/01/14 05:49:51;;;;;;;7.23;2.13;;;8.60;91.90;;;;;;935858;149;27400;-78
2023/01/14 05:52:18;;;;;;;8.80;2.90;;;8.60;91.90;;;;;;937172;149;27379;-79
2023/01/14 05:54:44;;;;;;;7.30;2.37;;;8.60;92.00;;;;;;936554;149;27781;-79
2023/01/14 05:57:11;;;;;;;8.00;2.03;;;8.60;92.00;;;;;;937828;149;27462;-77
2023/01/14 05:59:38;;;;;;;5.27;2.10;;;8.60;92.10;;;;;;936143;149;27350;-77
2023/01/14 06:07:35;;;;;;;5.77;2.40;;;8.60;92.30;;;;;;936266;149;27890;-77
2023/01/14 06:10:02;;;;;;;7.43;2.07;;;8.70;92.30;;;;;;936676;149;27442;-78
2023/01/14 06:12:57;;;;;;;6.27;2.30;;;8.70;92.50;;;;;;937054;149;27936;-80
2023/01/14 06:15:01;;;;;;;10.27;2.70;;;8.70;92.60;;;;;;936045;149;27808;-78
2023/01/14 06:17:34;;;;;;;6.10;2.43;;;8.70;92.70;;;;;;933694;149;27347;-77
2023/01/14 06:19:54;;;;;;;9.27;2.50;;;8.70;92.70;;;;;;936085;149;27474;-78
2023/01/14 06:22:20;;;;;;;6.63;2.03;;;8.80;92.70;;;;;;937380;149;27433;-80
2023/01/14 06:24:47;;;;;;;7.13;2.27;;;8.80;92.70;;;;;;935898;149;27418;-78
2023/01/14 06:27:14;;;;;;;8.63;2.70;;;8.90;92.80;;;;;;938281;149;27421;-77
2023/01/14 06:29:40;;;;;;;8.90;2.80;;;8.90;92.70;;;;;;937209;149;27330;-78
2023/01/14 06:32:07;;;;;;;8.53;2.17;;;8.90;92.70;;;;;;938258;149;27362;-80
2023/01/14 06:34:33;;;;;;;7.70;2.50;;;9.00;92.70;;;;;;938893;149;27509;-77
2023/01/14 06:37:00;;;;;;;9.60;3.13;;;9.00;92.60;;;;;;937945;149;27384;-77
2023/01/14 06:39:26;;;;;;;7.50;2.40;;;9.00;92.60;;;;;;917239;155;27300;-78
2023/01/14 06:41:53;;;;;;;5.53;2.20;;;9.00;92.60;;;;;;917463;153;27306;-77
2023/01/14 06:44:23;;;;;;;6.83;2.10;;;9.10;92.70;;;;;;938042;149;27347;-78
2023/01/14 06:46:46;;;;;;;5.37;2.23;;;9.10;92.60;;;;;;933396;149;27939;-78
2023/01/14 06:49:13;;;;;;;7.80;2.47;;;9.10;92.60;;;;;;936353;149;27279;-78
2023/01/14 06:51:40;;;;;;;6.97;2.33;;;9.10;92.60;;;;;;936550;149;27428;-79
2023/01/14 06:54:06;;;;;;;8.00;2.80;;;9.10;92.50;;;;;;938679;149;27458;-78
2023/01/14 06:56:34;;;;;;;6.13;2.43;;;9.20;92.50;;;;;;937393;149;27374;-80
2023/01/14 06:58:59;;;;;;;7.03;2.37;;;9.20;92.50;;;;;;937240;149;27908;-78
2023/01/14 07:01:26;;;;;;;8.50;2.40;;;9.20;92.50;;;;;;938315;149;27358;-78
2023/01/14 07:03:52;;;;;;;8.20;2.60;;;9.20;92.40;;;;;;938168;149;27362;-77
2023/01/14 07:06:19;;;;;;;5.63;2.20;;;9.20;92.40;;;;;;936744;149;27323;-78
2023/01/14 07:08:45;;;;;;;7.53;2.30;;;9.30;92.40;;;;;;937178;149;27374;-78
2023/01/14 07:11:12;;;;;;;8.87;2.40;;;9.30;92.40;;;;;;936626;150;27385;-78
2023/01/14 07:13:39;;;;;;;6.10;2.40;;;9.30;92.50;;;;;;937504;149;27436;-78
2023/01/14 07:16:05;;;;;;;6.60;2.20;;;9.30;92.40;;;;;;938137;149;27356;-78
2023/01/14 07:18:32;;;;;;;6.70;2.23;;;9.30;92.40;;;;;;937554;149;27322;-80
2023/01/14 07:20:58;;;;;;;6.80;2.50;;;9.30;92.40;;;;;;936026;149;27378;-78
2023/01/14 07:23:25;;;;;;;7.00;2.50;;;9.40;92.40;;;;;;947914;148;28420;-77
2023/01/14 07:25:55;;;;;;;6.13;2.17;;;9.40;92.40;;;;;;949881;148;27388;-77
2023/01/14 07:28:18;;;;;;;7.13;2.70;;;9.40;92.40;;;;;;946584;148;27274;-77
2023/01/14 07:30:45;;;;;;;6.43;2.37;;;9.40;92.40;;;;;;947552;148;27392;-77
2023/01/14 07:33:11;;;;;;;5.60;1.97;;;9.50;92.30;;;;;;947401;148;27765;-78
2023/01/14 07:35:38;;;;;;;8.13;2.87;;;9.50;92.40;;;;;;947537;148;27329;-80
2023/01/14 07:38:04;;;;;;;8.20;2.10;;;9.50;92.40;;;;;;949462;148;27349;-78
2023/01/14 07:40:31;;;;;;;5.97;2.23;;;9.50;92.40;;;;;;948680;148;27365;-79
2023/01/14 07:42:58;;;;;;;7.80;2.27;;;9.60;92.50;;;;;;947413;148;27527;-78
2023/01/14 07:45:24;;;;;;;7.67;3.00;;;9.60;92.40;;;;;;948812;148;27335;-77
2023/01/14 07:47:51;;;;;;;5.53;2.53;;;9.60;92.40;;;;;;947454;148;27329;-77
2023/01/14 07:50:17;;;;;;;11.20;2.60;;;9.60;92.40;;;;;;947310;148;27352;-79
2023/01/14 07:52:44;;;;;;;7.47;2.30;;;9.70;92.30;;;;;;947490;148;27474;-77
2023/01/14 07:55:11;;;;;;;6.93;2.30;;;9.70;92.20;;;;;;946371;148;27484;-77
2023/01/14 07:57:37;;;;;;;4.33;2.33;;;9.80;92.20;;;;;;947751;148;27368;-79
2023/01/14 08:00:04;;;;;;;7.10;2.40;;;9.80;92.20;;;;;;948655;148;27333;-78
2023/01/14 08:02:30;;;;;;;5.50;2.40;;;9.80;92.10;;;;;;946863;148;27387;-79
2023/01/14 08:04:57;;;;;;;5.93;2.40;;;9.80;92.10;;;;;;947224;148;27505;-79
2023/01/14 08:07:23;;;;;;;7.73;3.27;;;9.90;92.10;;;;;;947457;148;27341;-79
2023/01/14 08:09:50;;;;;;;7.60;2.50;;;9.90;92.00;;;;;;945235;148;27839;-79
2023/01/14 08:12:17;;;;;;;8.23;2.80;;;9.90;92.00;;;;;;947123;148;27668;-80
2023/01/14 08:14:43;;;;;;;9.83;4.37;;;9.90;92.00;;;;;;946948;148;27376;-79
2023/01/14 08:17:10;;;;;;;8.20;4.00;;;10.00;92.00;;;;;;948580;148;27459;-78
2023/01/14 08:19:36;;;;;;;8.17;3.43;;;10.00;92.00;;;;;;946298;148;27450;-79
2023/01/14 08:22:03;;;;;;;7.80;2.90;;;10.00;92.00;;;;;;944373;148;27341;-80
2023/01/14 08:24:30;;;;;;;6.10;2.50;;;10.00;92.00;;;;;;935037;149;27747;-81
2023/01/14 08:26:56;;;;;;;6.03;2.63;;;10.10;92.10;;;;;;936151;149;27465;-78
2023/01/14 08:29:23;;;;;;;7.30;2.40;;;10.10;92.20;;;;;;937624;149;27864;-78
2023/01/14 08:31:51;;;;;;;8.80;2.33;;;10.20;92.00;;;;;;936636;149;27354;-79
2023/01/14 08:34:16;;;;;;;5.67;2.27;;;10.20;92.00;;;;;;936345;149;27425;-78
2023/01/14 08:36:43;;;;;;;2.77;1.73;;;10.30;92.30;;;;;;936812;149;27382;-78
2023/01/14 08:39:09;;;;;;;6.33;2.20;;;10.30;91.90;;;;;;936912;149;28317;-79
2023/01/14 08:41:36;;;;;;;6.43;2.80;;;10.30;91.90;;;;;;936293;149;27319;-79
2023/01/14 08:44:02;;;;;;;8.30;3.07;;;10.40;91.90;;;;;;936317;149;27383;-78
2023/01/14 08:46:29;;;;;;;6.00;2.50;;;10.40;91.90;;;;;;935456;149;27850;-80
2023/01/14 08:48:55;;;;;;;8.07;2.60;;;10.50;91.90;;;;;;939367;149;27901;-77
2023/01/14 08:51:26;;;;;;;6.13;2.60;;;10.50;91.80;;;;;;937617;149;27346;-81
2023/01/14 08:53:49;;;;;;;6.47;2.20;;;10.60;91.80;;;;;;935956;149;27352;-79
2023/01/14 08:56:16;;;;;;;4.17;2.50;;;10.70;92.10;;;;;;936697;149;27387;-81
2023/01/14 08:58:42;;;;;;;5.30;2.47;;;10.70;91.60;;;;;;937835;149;27464;-80
2023/01/14 09:01:09;;;;;;;6.67;2.43;;;10.80;91.50;;;;;;936134;149;28295;-79
2023/01/14 09:03:35;;;;;;;3.13;2.00;;;10.80;91.40;;;;;;937036;149;27479;-79
2023/01/14 09:06:02;;;;;;;6.13;2.50;;;10.90;91.30;;;;;;938423;149;27347;-79
2023/01/14 09:19:26;;;;;;;6.63;2.20;;;11.10;90.90;;;;;;937763;149;27350;-80
2023/01/14 09:21:53;;;;;;;5.70;2.10;;;11.10;90.90;;;;;;935934;149;27884;-79
2023/01/14 09:24:20;;;;;;;6.13;2.00;;;11.10;90.90;;;;;;953827;146;28465;-78
2023/01/14 09:26:46;;;;;;;4.80;1.80;;;11.20;91.00;;;;;;955866;146;27313;-78
2023/01/14 09:29:13;;;;;;;7.23;2.47;;;11.20;91.00;;;;;;956451;146;27668;-80
2023/01/14 09:31:39;;;;;;;4.60;2.00;;;11.20;91.10;;;;;;954520;146;27484;-81
2023/01/14 09:34:06;;;;;;;4.07;1.97;;;11.20;91.20;;;;;;954979;146;27415;-80
2023/01/14 09:36:33;;;;;;;4.37;1.90;;;11.20;91.30;;;;;;955606;146;27344;-78
2023/01/14 09:38:59;;;;;;;4.17;1.87;;;11.20;91.30;;;;;;955838;146;27442;-79
2023/01/14 09:41:31;;;;;;;3.50;1.50;;;11.20;91.50;;;;;;953783;146;27488;-80
2023/01/14 09:43:58;;;;;;;4.20;1.50;;;11.30;91.70;;;;;;953233;146;27371;-79
2023/01/14 09:46:24;;;;;;;5.13;2.10;;;11.30;91.80;;;;;;955755;147;27309;-79
2023/01/14 09:48:51;;;;;;;4.17;1.80;;;11.30;92.00;;;;;;954034;146;27359;-79
2023/01/14 09:51:35;;;;;;;5.77;2.03;;;11.40;92.20;;;;;;954922;146;27409;-79
2023/01/14 09:54:23;;;;;;;5.20;1.60;;;11.40;92.30;;;;;;953646;146;27908;-81
2023/01/14 09:56:55;;;;;;;4.77;1.43;;;11.40;92.30;;;;;;953607;146;27480;-81
2023/01/14 09:59:27;;;;;;;5.03;1.60;;;11.50;92.30;;;;;;952831;146;27378;-79
2023/01/14 10:02:00;;;;;;;4.50;1.60;;;11.50;92.30;;;;;;954149;146;27381;-79
2023/01/14 10:05:00;;;;;;;5.47;2.10;;;11.60;92.40;;;;;;953583;146;27390;-81
2023/01/14 10:07:27;;;;;;;5.10;1.70;;;11.60;92.40;;;;;;954874;146;28734;-79
2023/01/14 10:09:53;;;;;;;2.83;1.90;;;11.60;92.30;;;;;;955731;146;27420;-79
2023/01/14 10:12:29;;;;;;;5.20;2.10;;;11.70;92.30;;;;;;954097;146;27401;-80
2023/01/14 10:15:32;;;;;;;3.90;2.30;;;11.70;92.30;;;;;;953157;146;27348;-80
2023/01/14 10:18:05;;;;;;;4.43;1.67;;;11.70;92.30;;;;;;954209;146;27375;-78
2023/01/14 10:20:49;;;;;;;1.70;1.37;;;11.80;92.20;;;;;;947187;146;27389;-79
2023/01/14 10:23:22;;;;;;;2.70;1.43;;;11.80;92.20;;;;;;950768;146;27913;-80
2023/01/14 10:25:49;;;;;;;3.50;1.50;;;11.80;92.20;;;;;;928669;153;27421;-78
2023/01/14 10:28:15;;;;;;;2.00;1.43;;;11.80;92.30;;;;;;928326;153;27336;-78
2023/01/14 10:30:42;;;;;;;3.83;1.47;;;11.80;92.30;;;;;;930917;153;27382;-78
2023/01/14 10:33:08;;;;;;;4.90;1.63;;;11.90;92.80;;;;;;931477;153;27448;-78
2023/01/14 10:35:35;;;;;;;4.77;1.70;;;11.90;92.30;;;;;;927575;153;27426;-78
2023/01/14 10:38:01;;;;;;;2.20;1.20;;;11.90;92.20;;;;;;929739;153;27425;-78
2023/01/14 10:40:29;;;;;;;3.57;1.50;;;12.00;92.10;;;;;;928382;153;27352;-80
2023/01/14 10:42:55;;;;;;;1.17;1.07;;;12.00;92.10;;;;;;929593;153;27470;-78
2023/01/14 10:45:21;;;;;;;2.13;1.30;;;12.00;92.00;;;;;;931019;153;27380;-78
2023/01/14 10:47:48;;;;;;;3.53;1.30;;;12.00;92.00;;;;;;929408;151;27372;-78
2023/01/14 10:50:14;;;;;;;3.90;1.10;;;12.10;92.00;;;;;;931042;153;27712;-80
2023/01/14 10:52:43;;;;;;;1.97;1.13;;;12.10;91.90;;;;;;931667;153;27461;-78
2023/01/14 10:55:13;;;;;;;1.10;0.90;;;12.10;91.90;;;;;;929273;153;27453;-79
2023/01/14 10:58:05;;;;;;;4.23;1.60;;;12.10;91.90;;;;;;929692;153;27382;-79
2023/01/14 11:00:33;;;;;;;2.63;1.50;;;12.20;91.90;;;;;;929065;153;27749;-80
2023/01/14 11:03:00;;;;;;;4.23;1.83;;;12.20;91.90;;;;;;927904;153;27380;-78
2023/01/14 11:05:26;;;;;;;2.53;1.33;;;12.20;92.00;;;;;;929421;151;27428;-78
2023/01/14 11:07:53;;;;;;;2.67;1.17;;;12.20;92.10;;;;;;929894;153;27456;-80
2023/01/14 11:10:20;;;;;;;2.43;1.30;;;12.30;92.20;;;;;;930199;153;27394;-81
2023/01/14 11:12:46;;;;;;;3.30;1.90;;;12.30;92.10;;;;;;930015;153;27417;-80
2023/01/14 11:15:34;;;;;;;2.00;1.30;;;12.40;92.10;;;;;;931522;153;27728;-78
2023/01/14 11:18:19;;;;;;;2.93;1.70;;;12.50;91.90;;;;;;929270;153;27707;-79
2023/01/14 11:21:00;;;;;;;3.37;2.13;;;12.50;91.80;;;;;;929209;153;27331;-79
2023/01/14 11:23:30;;;;;;;3.17;1.60;;;12.60;91.60;;;;;;929973;153;27414;-80
2023/01/14 11:25:56;;;;;;;1.17;1.10;;;12.60;91.50;;;;;;929540;153;27410;-79
2023/01/14 11:28:23;;;;;;;4.13;1.77;;;12.60;91.30;;;;;;928421;153;27273;-78
2023/01/14 11:30:49;;;;;;;3.27;1.83;;;12.60;91.20;;;;;;931076;153;27346;-79
2023/01/14 11:33:19;;;;;;;4.90;2.80;;;12.70;91.20;;;;;;929492;153;27398;-80
2023/01/14 11:35:45;;;;;;;2.12;1.80;;;12.70;91.10;;;;;;930150;153;27407;-81
2023/01/14 11:38:12;;;;;;;5.53;2.73;;;12.70;90.90;;;;;;928949;153;27375;-78
2023/01/14 11:43:25;;;;;;;3.87;2.47;;;12.80;90.70;;;;;;929135;153;27828;-80
2023/01/14 11:46:05;;;;;;;2.67;2.07;;;12.80;90.40;;;;;;929630;153;27413;-79
2023/01/14 11:48:32;;;;;;;5.67;2.63;;;12.80;90.30;;;;;;927459;153;27479;-79
2023/01/14 11:51:01;;;;;;;3.15;2.52;;;12.90;90.40;;;;;;929688;153;27412;-78
2023/01/14 11:53:46;;;;;;;4.93;1.90;;;12.90;90.30;;;;;;930169;153;27450;-79
2023/01/14 11:56:18;;;;;;;2.27;2.00;;;12.90;90.20;;;;;;921396;153;27377;-78
2023/01/14 11:58:45;;;;;;;2.17;1.75;;;12.90;90.10;;;;;;930442;153;27401;-79
2023/01/14 12:01:33;;;;;;;5.37;1.60;;;12.90;89.80;;;;;;930122;150;27346;-78
2023/01/14 12:04:02;;;;;;;2.00;1.42;;;12.90;89.70;;;;;;928727;153;28414;-80
2023/01/14 12:06:49;;;;;;;3.20;1.73;;;12.90;89.80;;;;;;928766;153;27483;-78
2023/01/14 12:09:22;;;;;;;2.43;1.67;;;13.00;89.60;;;;;;927614;153;27330;-80
2023/01/14 12:11:54;;;;;;;1.80;1.63;;;12.90;89.30;;;;;;924608;153;27392;-78
2023/01/14 12:17:30;;;;;;;2.27;1.60;;;12.90;89.20;;;;;;929353;153;27832;-79
2023/01/14 12:20:00;;;;;;;3.27;2.23;;;12.90;89.00;;;;;;930321;153;27352;-80
2023/01/14 12:22:51;;;;;;;2.07;1.93;;;12.90;88.90;;;;;;931300;153;27530;-79
2023/01/14 12:25:18;;;;;;;5.73;2.43;;;12.90;88.50;;;;;;927821;149;27385;-78
2023/01/14 12:28:12;;;;;;;2.67;1.60;;;12.90;88.40;;;;;;935690;149;27797;-80
2023/01/14 12:30:50;;;;;;;2.57;1.30;;;12.90;88.20;;;;;;937574;149;27494;-79
2023/01/14 12:33:19;;;;;;;1.37;1.15;;;12.90;88.10;;;;;;938224;149;27359;-79
2023/01/14 12:36:04;;;;;;;2.00;1.50;;;12.80;88.00;;;;;;935699;149;27426;-78
2023/01/14 12:47:00;;;;;;;3.03;1.70;;;12.80;87.70;;;;;;937497;149;27385;-79
2023/01/14 12:49:26;;;;;;;2.17;1.53;;;12.80;87.80;;;;;;937236;149;27314;-79
2023/01/14 12:51:53;;;;;;;3.90;2.07;;;12.80;88.20;;;;;;936504;149;27873;-80
2023/01/14 12:54:19;;;;;;;2.00;1.53;;;12.80;88.50;;;;;;936415;149;27475;-78
2023/01/14 12:56:49;;;;;;;2.03;1.47;;;12.80;88.50;;;;;;937060;149;27338;-78
2023/01/14 12:59:27;;;;;;;3.40;2.30;;;12.80;88.80;;;;;;935786;149;27345;-78
2023/01/14 13:02:21;;;;;;;3.00;1.60;;;12.80;89.60;;;;;;937876;149;27303;-78
2023/01/14 13:04:51;;;;;;;2.93;1.90;;;12.80;89.40;;;;;;933975;149;27442;-80
2023/01/14 13:07:18;;;;;;;2.23;1.57;;;12.80;89.40;;;;;;936046;149;27377;-78
2023/01/14 13:09:47;;;;;;;2.73;1.80;;;12.70;89.60;;;;;;933906;149;27426;-78
2023/01/14 13:12:19;;;;;;;1.87;1.77;;;12.70;89.80;;;;;;934835;149;27321;-79
2023/01/14 13:14:46;;;;;;;3.23;1.40;;;12.70;90.00;;;;;;936247;149;27380;-78
2023/01/14 13:17:18;;;;;;;3.17;1.77;;;12.60;90.00;;;;;;936820;149;27350;-78
2023/01/14 13:19:54;;;;;;;5.23;2.87;;;12.60;90.10;;;;;;937470;149;27304;-79
2023/01/14 13:22:43;;;;;;;2.40;1.80;;;12.60;90.00;;;;;;938750;149;27311;-79
2023/01/14 13:25:33;;;;;;;3.50;2.53;;;12.60;90.20;;;;;;940815;149;27437;-81
2023/01/14 13:28:00;;;;;;;3.97;2.43;;;12.50;90.30;;;;;;955500;147;27452;-81
2023/01/14 13:30:27;;;;;;;3.77;1.70;;;12.50;90.40;;;;;;954880;147;27364;-79
2023/01/14 13:32:59;;;;;;;3.00;1.43;;;12.50;90.40;;;;;;955729;147;27515;-79
2023/01/14 13:35:25;;;;;;;2.33;1.10;;;12.40;90.40;;;;;;954909;147;27327;-79
2023/01/14 13:37:52;;;;;;;1.20;1.10;;;12.40;90.50;;;;;;953428;146;27356;-81
2023/01/14 13:40:18;;;;;;;1.87;0.97;;;12.40;90.60;;;;;;955846;147;27480;-79
2023/01/14 13:42:45;;;;;;;1.60;0.93;;;12.40;90.80;;;;;;951465;147;27351;-79
2023/01/14 13:45:19;;;;;;;1.43;1.13;;;12.40;90.50;;;;;;954167;146;27340;-78